createdAt,value
2016-12-30T00:00:10.685Z,0
2016-12-30T00:01:10.695Z,0
2016-12-30T00:02:10.706Z,0
2016-12-30T00:03:10.718Z,0
2016-12-30T00:04:10.732Z,0
2016-12-30T00:05:10.743Z,0
2016-12-30T00:06:10.757Z,0
2016-12-30T00:07:10.779Z,0
2016-12-30T00:08:10.785Z,0
2016-12-30T00:09:10.800Z,0
2016-12-30T00:10:10.816Z,0
2016-12-30T00:11:10.824Z,0
2016-12-30T00:12:10.843Z,0
2016-12-30T00:13:10.859Z,0
2016-12-30T00:14:10.874Z,0
2016-12-30T00:15:10.877Z,0
2016-12-30T00:16:10.900Z,0
2016-12-30T00:17:10.908Z,0
2016-12-30T00:18:10.919Z,0
2016-12-30T00:19:10.940Z,0
2016-12-30T00:20:10.948Z,0
2016-12-30T00:21:10.965Z,0
2016-12-30T00:22:10.983Z,0
2016-12-30T00:23:10.995Z,0
2016-12-30T00:24:11.003Z,0
2016-12-30T00:25:11.026Z,0
2016-12-30T00:26:11.026Z,0
2016-12-30T00:27:11.042Z,0
2016-12-30T00:28:11.056Z,0
2016-12-30T00:29:11.066Z,0
2016-12-30T00:30:11.489Z,0
2016-12-30T00:31:11.103Z,0
2016-12-30T00:32:11.114Z,0
2016-12-30T00:33:11.132Z,0
2016-12-30T00:34:11.139Z,0
2016-12-30T00:35:11.150Z,0
2016-12-30T00:36:11.167Z,0
2016-12-30T00:37:11.179Z,0
2016-12-30T00:38:11.198Z,0
2016-12-30T00:39:11.206Z,0
2016-12-30T00:40:11.221Z,0
2016-12-30T00:41:11.238Z,0
2016-12-30T00:42:11.253Z,0
2016-12-30T00:43:11.264Z,0
2016-12-30T00:44:11.279Z,0
2016-12-30T00:45:11.284Z,0
2016-12-30T00:46:11.297Z,0
2016-12-30T00:47:11.313Z,0
2016-12-30T00:48:11.338Z,0
2016-12-30T00:49:11.341Z,0
2016-12-30T00:50:11.750Z,0
2016-12-30T00:51:11.366Z,0
2016-12-30T00:52:11.385Z,0
2016-12-30T00:53:11.395Z,0
2016-12-30T00:54:11.404Z,0
2016-12-30T00:55:11.417Z,0
2016-12-30T00:56:11.431Z,0
2016-12-30T00:57:11.451Z,0
2016-12-30T00:58:11.467Z,0
2016-12-30T00:59:11.475Z,0
2016-12-30T01:00:11.488Z,0
2016-12-30T01:01:11.509Z,0
2016-12-30T01:02:11.514Z,0
2016-12-30T01:03:11.536Z,0
2016-12-30T01:04:11.543Z,0
2016-12-30T01:05:11.556Z,0
2016-12-30T01:06:11.579Z,0
2016-12-30T01:07:11.587Z,0
2016-12-30T01:08:11.597Z,0
2016-12-30T01:09:11.646Z,0
2016-12-30T01:10:11.641Z,0
2016-12-30T01:11:11.637Z,0
2016-12-30T01:12:11.653Z,0
2016-12-30T01:13:12.066Z,0
2016-12-30T01:14:11.675Z,0
2016-12-30T01:15:11.693Z,0
2016-12-30T01:16:11.710Z,0
2016-12-30T01:17:11.715Z,0
2016-12-30T01:18:11.737Z,0
2016-12-30T01:19:11.743Z,0
2016-12-30T01:20:11.812Z,0
2016-12-30T01:21:11.778Z,0
2016-12-30T01:22:11.786Z,0
2016-12-30T01:23:11.806Z,0
2016-12-30T01:24:11.832Z,0
2016-12-30T01:25:11.822Z,0
2016-12-30T01:26:11.834Z,0
2016-12-30T01:27:11.848Z,0
2016-12-30T01:28:11.863Z,0
2016-12-30T01:29:11.879Z,0
2016-12-30T01:30:11.895Z,0
2016-12-30T01:31:11.908Z,0
2016-12-30T01:32:11.918Z,0
2016-12-30T01:33:11.961Z,0
2016-12-30T01:34:11.942Z,0
2016-12-30T01:35:11.959Z,0
2016-12-30T01:36:12.117Z,0
2016-12-30T01:37:12.136Z,0
2016-12-30T01:38:12.142Z,0
2016-12-30T01:39:12.142Z,0
2016-12-30T01:40:12.221Z,0
2016-12-30T01:41:12.161Z,0
2016-12-30T01:42:12.176Z,0
2016-12-30T01:43:12.181Z,0
2016-12-30T01:44:12.191Z,0
2016-12-30T01:45:12.277Z,0
2016-12-30T01:46:12.195Z,0
2016-12-30T01:47:12.119Z,0
2016-12-30T01:48:12.132Z,0
2016-12-30T01:49:12.146Z,0
2016-12-30T01:50:12.159Z,0
2016-12-30T01:51:12.168Z,0
2016-12-30T01:52:12.208Z,0
2016-12-30T01:53:12.195Z,0
2016-12-30T01:54:12.215Z,0
2016-12-30T01:55:12.222Z,0
2016-12-30T01:56:12.231Z,0
2016-12-30T01:57:12.246Z,0
2016-12-30T01:58:12.268Z,0
2016-12-30T01:59:12.277Z,0
2016-12-30T02:00:12.283Z,0
2016-12-30T02:01:12.308Z,0
2016-12-30T02:02:12.322Z,0
2016-12-30T02:03:12.330Z,0
2016-12-30T02:04:12.842Z,0
2016-12-30T02:05:12.356Z,0
2016-12-30T02:06:12.499Z,0
2016-12-30T02:07:12.497Z,0
2016-12-30T02:08:12.514Z,0
2016-12-30T02:09:12.523Z,0
2016-12-30T02:10:12.514Z,0
2016-12-30T02:11:12.645Z,0
2016-12-30T02:12:12.654Z,0
2016-12-30T02:13:12.659Z,0
2016-12-30T02:14:12.667Z,0
2016-12-30T02:15:12.487Z,0
2016-12-30T02:16:12.500Z,0
2016-12-30T02:17:12.533Z,0
2016-12-30T02:18:12.531Z,0
2016-12-30T02:19:12.547Z,0
2016-12-30T02:20:12.551Z,0
2016-12-30T02:21:12.624Z,0
2016-12-30T02:22:12.586Z,0
2016-12-30T02:23:12.593Z,0
2016-12-30T02:24:12.607Z,0
2016-12-30T02:25:12.621Z,0
2016-12-30T02:26:12.635Z,0
2016-12-30T02:27:12.639Z,0
2016-12-30T02:28:12.657Z,0
2016-12-30T02:29:12.762Z,0
2016-12-30T02:30:12.698Z,0
2016-12-30T02:31:12.698Z,0
2016-12-30T02:32:12.712Z,0
2016-12-30T02:33:12.727Z,0
2016-12-30T02:34:12.737Z,0
2016-12-30T02:35:12.752Z,0
2016-12-30T02:36:12.758Z,0
2016-12-30T02:37:12.770Z,0
2016-12-30T02:38:12.790Z,0
2016-12-30T02:39:12.804Z,0
2016-12-30T02:40:12.836Z,0
2016-12-30T02:41:12.829Z,0
2016-12-30T02:42:12.900Z,0
2016-12-30T02:43:12.857Z,0
2016-12-30T02:44:12.873Z,0
2016-12-30T02:45:13.306Z,0
2016-12-30T02:46:12.890Z,0
2016-12-30T02:47:12.922Z,0
2016-12-30T02:48:12.917Z,0
2016-12-30T02:49:12.930Z,0
2016-12-30T02:50:12.978Z,0
2016-12-30T02:51:12.956Z,0
2016-12-30T02:52:12.969Z,0
2016-12-30T02:53:12.986Z,0
2016-12-30T02:54:13.003Z,0
2016-12-30T02:55:13.007Z,0
2016-12-30T02:56:13.018Z,0
2016-12-30T02:57:13.038Z,0
2016-12-30T02:58:13.046Z,0
2016-12-30T02:59:13.063Z,0
2016-12-30T03:00:13.073Z,0
2016-12-30T03:01:13.089Z,0
2016-12-30T03:02:13.095Z,0
2016-12-30T03:03:13.117Z,0
2016-12-30T03:04:13.128Z,0
2016-12-30T03:05:13.137Z,0
2016-12-30T03:06:13.164Z,0
2016-12-30T03:07:13.167Z,0
2016-12-30T03:08:13.180Z,0
2016-12-30T03:09:13.196Z,0
2016-12-30T03:10:13.203Z,0
2016-12-30T03:11:13.219Z,0
2016-12-30T03:12:13.342Z,0
2016-12-30T03:13:13.243Z,0
2016-12-30T03:14:13.259Z,0
2016-12-30T03:15:13.264Z,0
2016-12-30T03:16:13.395Z,0
2016-12-30T03:17:13.293Z,0
2016-12-30T03:18:13.314Z,0
2016-12-30T03:19:13.322Z,0
2016-12-30T03:20:13.335Z,0
2016-12-30T03:21:13.346Z,0
2016-12-30T03:22:13.482Z,0
2016-12-30T03:23:13.370Z,0
2016-12-30T03:24:13.383Z,0
2016-12-30T03:25:13.400Z,0
2016-12-30T03:26:13.407Z,0
2016-12-30T03:27:13.423Z,0
2016-12-30T03:28:13.435Z,0
2016-12-30T03:29:13.561Z,0
2016-12-30T03:30:13.463Z,0
2016-12-30T03:31:13.608Z,0
2016-12-30T03:32:13.617Z,0
2016-12-30T03:33:13.624Z,0
2016-12-30T03:34:13.623Z,0
2016-12-30T03:35:13.641Z,0
2016-12-30T03:36:13.681Z,0
2016-12-30T03:37:13.691Z,0
2016-12-30T03:38:13.689Z,0
2016-12-30T03:39:13.700Z,0
2016-12-30T03:40:13.707Z,0
2016-12-30T03:41:13.601Z,0
2016-12-30T03:42:13.619Z,0
2016-12-30T03:43:13.629Z,0
2016-12-30T03:44:13.645Z,0
2016-12-30T03:45:13.654Z,0
2016-12-30T03:46:13.674Z,0
2016-12-30T03:47:13.710Z,0
2016-12-30T03:48:13.695Z,0
2016-12-30T03:49:13.701Z,0
2016-12-30T03:50:13.714Z,0
2016-12-30T03:51:13.761Z,0
2016-12-30T03:52:13.749Z,0
2016-12-30T03:53:13.769Z,0
2016-12-30T03:54:13.773Z,0
2016-12-30T03:55:13.784Z,0
2016-12-30T03:56:13.793Z,0
2016-12-30T03:57:13.813Z,0
2016-12-30T03:58:13.827Z,0
2016-12-30T03:59:13.841Z,0
2016-12-30T04:00:13.849Z,0
2016-12-30T04:01:13.860Z,0
2016-12-30T04:02:13.881Z,0
2016-12-30T04:03:14.279Z,0
2016-12-30T04:04:13.899Z,0
2016-12-30T04:05:13.911Z,0
2016-12-30T04:06:13.935Z,0
2016-12-30T04:07:13.936Z,0
2016-12-30T04:08:13.948Z,0
2016-12-30T04:09:13.967Z,0
2016-12-30T04:10:13.974Z,0
2016-12-30T04:11:13.986Z,0
2016-12-30T04:12:13.999Z,0
2016-12-30T04:13:14.012Z,0
2016-12-30T04:14:14.028Z,0
2016-12-30T04:15:14.037Z,0
2016-12-30T04:16:14.052Z,0
2016-12-30T04:17:14.074Z,0
2016-12-30T04:18:14.076Z,0
2016-12-30T04:19:14.094Z,0
2016-12-30T04:20:14.105Z,0
2016-12-30T04:21:14.129Z,0
2016-12-30T04:22:14.133Z,0
2016-12-30T04:23:14.143Z,0
2016-12-30T04:24:14.165Z,0
2016-12-30T04:25:14.171Z,0
2016-12-30T04:26:14.180Z,0
2016-12-30T04:27:14.194Z,0
2016-12-30T04:28:14.208Z,0
2016-12-30T04:29:14.219Z,0
2016-12-30T04:30:14.236Z,0
2016-12-30T04:31:14.250Z,0
2016-12-30T04:32:14.259Z,0
2016-12-30T04:33:14.268Z,0
2016-12-30T04:34:14.313Z,0
2016-12-30T04:35:14.295Z,0
2016-12-30T04:36:14.305Z,0
2016-12-30T04:37:14.329Z,0
2016-12-30T04:38:14.332Z,0
2016-12-30T04:39:14.344Z,0
2016-12-30T04:40:14.359Z,0
2016-12-30T04:41:14.393Z,0
2016-12-30T04:42:14.385Z,0
2016-12-30T04:43:14.399Z,0
2016-12-30T04:44:14.417Z,0
2016-12-30T04:45:14.423Z,0
2016-12-30T04:46:14.433Z,0
2016-12-30T04:47:14.449Z,0
2016-12-30T04:48:14.475Z,0
2016-12-30T04:49:14.470Z,0
2016-12-30T04:50:14.483Z,0
2016-12-30T04:51:14.495Z,0
2016-12-30T04:52:14.513Z,0
2016-12-30T04:53:14.521Z,0
2016-12-30T04:54:14.563Z,0
2016-12-30T04:55:14.545Z,0
2016-12-30T04:56:14.562Z,0
2016-12-30T04:57:14.575Z,0
2016-12-30T04:58:14.587Z,0
2016-12-30T04:59:14.594Z,0
2016-12-30T05:00:14.608Z,0
2016-12-30T05:01:14.632Z,0
2016-12-30T05:02:14.639Z,0
2016-12-30T05:03:14.651Z,0
2016-12-30T05:04:14.668Z,0
2016-12-30T05:05:14.674Z,0
2016-12-30T05:06:14.687Z,0
2016-12-30T05:07:14.703Z,0
2016-12-30T05:08:14.712Z,0
2016-12-30T05:09:14.724Z,0
2016-12-30T05:10:14.738Z,0
2016-12-30T05:11:14.760Z,0
2016-12-30T05:12:14.760Z,0
2016-12-30T05:13:14.777Z,0
2016-12-30T05:14:14.784Z,0
2016-12-30T05:15:14.800Z,0
2016-12-30T05:16:14.819Z,0
2016-12-30T05:17:14.825Z,0
2016-12-30T05:18:14.837Z,0
2016-12-30T05:19:14.854Z,0
2016-12-30T05:20:14.867Z,0
2016-12-30T05:21:14.873Z,0
2016-12-30T05:22:14.895Z,0
2016-12-30T05:23:14.898Z,0
2016-12-30T05:24:14.919Z,0
2016-12-30T05:25:14.923Z,0
2016-12-30T05:26:14.935Z,0
2016-12-30T05:27:14.957Z,0
2016-12-30T05:28:14.961Z,0
2016-12-30T05:29:15.007Z,0
2016-12-30T05:30:14.990Z,0
2016-12-30T05:31:14.998Z,0
2016-12-30T05:32:15.015Z,0
2016-12-30T05:33:15.023Z,0
2016-12-30T05:34:15.036Z,0
2016-12-30T05:35:15.082Z,0
2016-12-30T05:36:15.067Z,0
2016-12-30T05:37:15.074Z,0
2016-12-30T05:38:15.090Z,0
2016-12-30T05:39:15.103Z,0
2016-12-30T05:40:15.116Z,0
2016-12-30T05:41:15.122Z,0
2016-12-30T05:42:15.139Z,0
2016-12-30T05:43:15.176Z,0
2016-12-30T05:44:15.163Z,0
2016-12-30T05:45:15.281Z,0
2016-12-30T05:46:15.348Z,0
2016-12-30T05:47:15.284Z,0
2016-12-30T05:48:15.294Z,0
2016-12-30T05:49:15.221Z,0
2016-12-30T05:50:15.238Z,0
2016-12-30T05:51:15.255Z,0
2016-12-30T05:52:15.261Z,0
2016-12-30T05:53:15.305Z,0
2016-12-30T05:54:15.293Z,0
2016-12-30T05:55:15.303Z,0
2016-12-30T05:56:15.310Z,0
2016-12-30T05:57:15.330Z,0
2016-12-30T05:58:15.335Z,0
2016-12-30T05:59:15.350Z,0
2016-12-30T06:00:15.481Z,0
2016-12-30T06:01:15.485Z,0
2016-12-30T06:02:15.511Z,0
2016-12-30T06:03:15.485Z,0
2016-12-30T06:04:15.504Z,0
2016-12-30T06:05:15.512Z,0
2016-12-30T06:06:15.646Z,0
2016-12-30T06:07:15.637Z,0
2016-12-30T06:08:15.552Z,0
2016-12-30T06:09:15.562Z,0
2016-12-30T06:10:15.665Z,0
2016-12-30T06:11:15.698Z,0
2016-12-30T06:12:15.669Z,0
2016-12-30T06:13:15.675Z,0
2016-12-30T06:14:15.687Z,0
2016-12-30T06:15:15.661Z,0
2016-12-30T06:16:15.704Z,0
2016-12-30T06:17:15.699Z,0
2016-12-30T06:18:15.708Z,0
2016-12-30T06:19:15.679Z,0
2016-12-30T06:20:15.610Z,0
2016-12-30T06:21:15.621Z,0
2016-12-30T06:22:15.645Z,0
2016-12-30T06:23:15.650Z,0
2016-12-30T06:24:15.661Z,0
2016-12-30T06:25:15.673Z,0
2016-12-30T06:26:15.696Z,0
2016-12-30T06:27:15.699Z,0
2016-12-30T06:28:15.713Z,0
2016-12-30T06:29:15.724Z,0
2016-12-30T06:30:15.730Z,0
2016-12-30T06:31:15.745Z,0
2016-12-30T06:32:15.754Z,0
2016-12-30T06:33:15.778Z,0
2016-12-30T06:34:15.788Z,0
2016-12-30T06:35:15.801Z,0
2016-12-30T06:36:15.814Z,0
2016-12-30T06:37:15.824Z,0
2016-12-30T06:38:15.840Z,0
2016-12-30T06:39:15.851Z,0
2016-12-30T06:40:15.859Z,0
2016-12-30T06:41:15.870Z,0
2016-12-30T06:42:15.914Z,0
2016-12-30T06:43:15.893Z,0
2016-12-30T06:44:15.904Z,0
2016-12-30T06:45:15.922Z,0
2016-12-30T06:46:15.939Z,0
2016-12-30T06:47:15.937Z,0
2016-12-30T06:48:15.957Z,0
2016-12-30T06:49:15.971Z,0
2016-12-30T06:50:16.099Z,0
2016-12-30T06:51:15.994Z,4
2016-12-30T06:52:16.004Z,4
2016-12-30T06:53:16.020Z,0
2016-12-30T06:54:16.027Z,0
2016-12-30T06:55:16.046Z,0
2016-12-30T06:56:16.052Z,4
2016-12-30T06:57:16.062Z,4
2016-12-30T06:58:16.079Z,4
2016-12-30T06:59:16.092Z,4
2016-12-30T07:00:16.097Z,4
2016-12-30T07:01:16.115Z,4
2016-12-30T07:02:16.128Z,8
2016-12-30T07:03:16.174Z,4
2016-12-30T07:04:16.150Z,8
2016-12-30T07:05:16.164Z,8
2016-12-30T07:06:16.179Z,8
2016-12-30T07:07:16.185Z,12
2016-12-30T07:08:16.225Z,12
2016-12-30T07:09:16.213Z,12
2016-12-30T07:10:16.222Z,16
2016-12-30T07:11:16.238Z,16
2016-12-30T07:12:16.248Z,20
2016-12-30T07:13:16.259Z,20
2016-12-30T07:14:16.677Z,20
2016-12-30T07:15:16.286Z,24
2016-12-30T07:16:16.304Z,24
2016-12-30T07:17:16.312Z,24
2016-12-30T07:18:16.334Z,28
2016-12-30T07:19:16.334Z,28
2016-12-30T07:20:16.342Z,32
2016-12-30T07:21:16.360Z,32
2016-12-30T07:22:16.421Z,36
2016-12-30T07:23:16.392Z,36
2016-12-30T07:24:16.392Z,40
2016-12-30T07:25:16.409Z,40
2016-12-30T07:26:16.422Z,44
2016-12-30T07:27:16.439Z,48
2016-12-30T07:28:16.450Z,48
2016-12-30T07:29:16.468Z,52
2016-12-30T07:30:16.472Z,52
2016-12-30T07:31:16.483Z,56
2016-12-30T07:32:16.515Z,56
2016-12-30T07:33:16.548Z,60
2016-12-30T07:34:16.524Z,60
2016-12-30T07:35:16.537Z,64
2016-12-30T07:36:16.550Z,68
2016-12-30T07:37:16.552Z,72
2016-12-30T07:38:16.564Z,72
2016-12-30T07:39:16.578Z,76
2016-12-30T07:40:16.589Z,76
2016-12-30T07:41:16.725Z,80
2016-12-30T07:42:16.624Z,84
2016-12-30T07:43:16.627Z,84
2016-12-30T07:44:16.644Z,88
2016-12-30T07:45:16.657Z,88
2016-12-30T07:46:16.664Z,96
2016-12-30T07:47:16.678Z,96
2016-12-30T07:48:16.694Z,100
2016-12-30T07:49:16.700Z,100
2016-12-30T07:50:16.715Z,104
2016-12-30T07:51:16.723Z,104
2016-12-30T07:52:17.243Z,108
2016-12-30T07:53:16.779Z,112
2016-12-30T07:54:16.785Z,116
2016-12-30T07:55:16.779Z,116
2016-12-30T07:56:16.785Z,116
2016-12-30T07:57:16.797Z,116
2016-12-30T07:58:16.817Z,120
2016-12-30T07:59:16.893Z,124
2016-12-30T08:00:16.837Z,124
2016-12-30T08:01:16.923Z,128
2016-12-30T08:02:16.858Z,128
2016-12-30T08:03:16.869Z,132
2016-12-30T08:04:16.887Z,132
2016-12-30T08:05:16.906Z,136
2016-12-30T08:06:16.914Z,136
2016-12-30T08:07:16.922Z,136
2016-12-30T08:08:16.938Z,136
2016-12-30T08:09:16.944Z,144
2016-12-30T08:10:16.959Z,144
2016-12-30T08:11:16.981Z,144
2016-12-30T08:12:16.978Z,148
2016-12-30T08:13:16.997Z,148
2016-12-30T08:14:17.015Z,152
2016-12-30T08:15:17.020Z,152
2016-12-30T08:16:17.211Z,156
2016-12-30T08:17:17.047Z,156
2016-12-30T08:18:17.054Z,156
2016-12-30T08:19:17.181Z,156
2016-12-30T08:20:17.077Z,160
2016-12-30T08:21:17.097Z,160
2016-12-30T08:22:17.102Z,160
2016-12-30T08:23:17.120Z,164
2016-12-30T08:24:17.227Z,164
2016-12-30T08:25:17.240Z,164
2016-12-30T08:26:17.171Z,168
2016-12-30T08:27:17.205Z,172
2016-12-30T08:28:17.352Z,172
2016-12-30T08:29:17.191Z,172
2016-12-30T08:30:17.199Z,176
2016-12-30T08:31:17.217Z,176
2016-12-30T08:32:17.224Z,176
2016-12-30T08:33:17.332Z,176
2016-12-30T08:34:17.407Z,176
2016-12-30T08:35:17.454Z,180
2016-12-30T08:36:17.469Z,184
2016-12-30T08:37:17.476Z,184
2016-12-30T08:38:17.415Z,184
2016-12-30T08:39:17.377Z,184
2016-12-30T08:40:17.444Z,184
2016-12-30T08:41:17.458Z,188
2016-12-30T08:42:17.348Z,188
2016-12-30T08:43:17.365Z,188
2016-12-30T08:44:17.376Z,188
2016-12-30T08:45:17.571Z,192
2016-12-30T08:46:17.593Z,192
2016-12-30T08:47:17.521Z,192
2016-12-30T08:48:17.535Z,196
2016-12-30T08:49:17.435Z,196
2016-12-30T08:50:17.451Z,196
2016-12-30T08:51:17.549Z,200
2016-12-30T08:52:17.471Z,196
2016-12-30T08:53:17.573Z,200
2016-12-30T08:54:17.496Z,200
2016-12-30T08:55:17.617Z,200
2016-12-30T08:56:17.524Z,200
2016-12-30T08:57:19.021Z,204
2016-12-30T08:58:17.568Z,204
2016-12-30T08:59:17.967Z,204
2016-12-30T09:00:18.263Z,208
2016-12-30T09:01:17.982Z,208
2016-12-30T09:02:17.917Z,208
2016-12-30T09:03:18.081Z,208
2016-12-30T09:04:17.627Z,212
2016-12-30T09:05:17.631Z,208
2016-12-30T09:06:17.642Z,208
2016-12-30T09:07:17.653Z,212
2016-12-30T09:08:17.668Z,216
2016-12-30T09:09:17.676Z,228
2016-12-30T09:10:17.701Z,212
2016-12-30T09:11:17.707Z,216
2016-12-30T09:12:17.714Z,216
2016-12-30T09:13:17.732Z,216
2016-12-30T09:14:17.741Z,220
2016-12-30T09:15:17.756Z,216
2016-12-30T09:16:17.783Z,216
2016-12-30T09:17:17.781Z,216
2016-12-30T09:18:17.789Z,216
2016-12-30T09:19:17.813Z,220
2016-12-30T09:20:17.821Z,220
2016-12-30T09:21:17.829Z,220
2016-12-30T09:22:17.847Z,220
2016-12-30T09:23:17.854Z,224
2016-12-30T09:24:17.860Z,224
2016-12-30T09:25:18.219Z,224
2016-12-30T09:26:17.891Z,224
2016-12-30T09:27:17.903Z,224
2016-12-30T09:28:17.913Z,224
2016-12-30T09:29:18.061Z,224
2016-12-30T09:30:17.938Z,224
2016-12-30T09:31:17.954Z,224
2016-12-30T09:32:17.961Z,224
2016-12-30T09:33:17.975Z,228
2016-12-30T09:34:17.992Z,228
2016-12-30T09:35:18.123Z,228
2016-12-30T09:36:18.133Z,228
2016-12-30T09:37:18.139Z,228
2016-12-30T09:38:18.034Z,232
2016-12-30T09:39:18.058Z,228
2016-12-30T09:40:18.070Z,232
2016-12-30T09:41:18.074Z,232
2016-12-30T09:42:18.209Z,232
2016-12-30T09:43:18.106Z,232
2016-12-30T09:44:18.229Z,232
2016-12-30T09:45:18.145Z,236
2016-12-30T09:46:18.141Z,232
2016-12-30T09:47:18.151Z,232
2016-12-30T09:48:18.165Z,232
2016-12-30T09:49:18.177Z,236
2016-12-30T09:50:18.219Z,236
2016-12-30T09:51:18.318Z,236
2016-12-30T09:52:18.618Z,240
2016-12-30T09:53:18.229Z,240
2016-12-30T09:54:18.376Z,244
2016-12-30T09:55:18.255Z,240
2016-12-30T09:56:18.268Z,244
2016-12-30T09:57:18.283Z,244
2016-12-30T09:58:18.293Z,244
2016-12-30T09:59:18.302Z,248
2016-12-30T10:00:18.317Z,244
2016-12-30T10:01:18.548Z,248
2016-12-30T10:02:18.456Z,252
2016-12-30T10:03:18.352Z,252
2016-12-30T10:04:18.826Z,252
2016-12-30T10:05:18.387Z,252
2016-12-30T10:06:18.422Z,252
2016-12-30T10:07:18.477Z,252
2016-12-30T10:08:18.412Z,256
2016-12-30T10:09:18.434Z,256
2016-12-30T10:10:18.457Z,256
2016-12-30T10:11:18.456Z,260
2016-12-30T10:12:18.473Z,260
2016-12-30T10:13:18.483Z,260
2016-12-30T10:14:18.699Z,260
2016-12-30T10:15:18.509Z,264
2016-12-30T10:16:18.644Z,264
2016-12-30T10:17:18.544Z,264
2016-12-30T10:18:18.626Z,268
2016-12-30T10:19:18.556Z,272
2016-12-30T10:20:18.997Z,284
2016-12-30T10:21:18.580Z,284
2016-12-30T10:22:18.604Z,284
2016-12-30T10:23:18.610Z,280
2016-12-30T10:24:18.622Z,276
2016-12-30T10:25:18.630Z,276
2016-12-30T10:26:18.645Z,272
2016-12-30T10:27:18.787Z,272
2016-12-30T10:28:18.667Z,276
2016-12-30T10:29:18.691Z,280
2016-12-30T10:30:18.693Z,276
2016-12-30T10:31:18.716Z,280
2016-12-30T10:32:18.724Z,276
2016-12-30T10:33:18.748Z,276
2016-12-30T10:34:18.752Z,280
2016-12-30T10:35:18.771Z,276
2016-12-30T10:36:18.782Z,276
2016-12-30T10:37:18.823Z,280
2016-12-30T10:38:18.800Z,280
2016-12-30T10:39:18.815Z,284
2016-12-30T10:40:18.829Z,284
2016-12-30T10:41:18.860Z,284
2016-12-30T10:42:18.860Z,284
2016-12-30T10:43:18.866Z,288
2016-12-30T10:44:19.006Z,288
2016-12-30T10:45:19.014Z,288
2016-12-30T10:46:19.023Z,288
2016-12-30T10:47:19.033Z,292
2016-12-30T10:48:19.041Z,292
2016-12-30T10:49:19.059Z,292
2016-12-30T10:50:19.048Z,296
2016-12-30T10:51:19.085Z,292
2016-12-30T10:52:18.978Z,296
2016-12-30T10:53:19.003Z,296
2016-12-30T10:54:19.006Z,296
2016-12-30T10:55:19.025Z,300
2016-12-30T10:56:19.084Z,300
2016-12-30T10:57:19.041Z,304
2016-12-30T10:58:19.054Z,308
2016-12-30T10:59:19.091Z,304
2016-12-30T11:00:19.086Z,308
2016-12-30T11:01:19.098Z,308
2016-12-30T11:02:19.108Z,312
2016-12-30T11:03:19.131Z,312
2016-12-30T11:04:19.134Z,324
2016-12-30T11:05:19.150Z,316
2016-12-30T11:06:19.166Z,316
2016-12-30T11:07:19.184Z,320
2016-12-30T11:08:19.187Z,324
2016-12-30T11:09:19.207Z,324
2016-12-30T11:10:19.243Z,324
2016-12-30T11:11:19.373Z,328
2016-12-30T11:12:19.242Z,328
2016-12-30T11:13:19.250Z,328
2016-12-30T11:14:19.269Z,332
2016-12-30T11:15:19.280Z,336
2016-12-30T11:16:19.295Z,336
2016-12-30T11:17:19.307Z,340
2016-12-30T11:18:19.344Z,340
2016-12-30T11:19:19.332Z,340
2016-12-30T11:20:19.359Z,340
2016-12-30T11:21:19.360Z,344
2016-12-30T11:22:19.465Z,344
2016-12-30T11:23:19.384Z,348
2016-12-30T11:24:19.525Z,348
2016-12-30T11:25:19.409Z,348
2016-12-30T11:26:19.417Z,348
2016-12-30T11:27:19.433Z,352
2016-12-30T11:28:19.446Z,352
2016-12-30T11:29:19.454Z,352
2016-12-30T11:30:19.473Z,352
2016-12-30T11:31:19.489Z,352
2016-12-30T11:32:19.503Z,352
2016-12-30T11:33:19.515Z,352
2016-12-30T11:34:19.527Z,352
2016-12-30T11:35:19.743Z,356
2016-12-30T11:36:19.556Z,352
2016-12-30T11:37:19.582Z,356
2016-12-30T11:38:19.577Z,352
2016-12-30T11:39:19.591Z,352
2016-12-30T11:40:19.603Z,356
2016-12-30T11:41:19.613Z,352
2016-12-30T11:42:19.635Z,352
2016-12-30T11:43:19.640Z,356
2016-12-30T11:44:19.657Z,352
2016-12-30T11:45:19.667Z,356
2016-12-30T11:46:19.684Z,352
2016-12-30T11:47:19.697Z,356
2016-12-30T11:48:19.705Z,356
2016-12-30T11:49:19.721Z,352
2016-12-30T11:50:19.730Z,356
2016-12-30T11:51:19.754Z,352
2016-12-30T11:52:19.761Z,352
2016-12-30T11:53:19.773Z,348
2016-12-30T11:54:19.993Z,348
2016-12-30T11:55:19.799Z,348
2016-12-30T11:56:19.817Z,348
2016-12-30T11:57:19.828Z,344
2016-12-30T11:58:19.868Z,344
2016-12-30T11:59:19.852Z,344
2016-12-30T12:00:19.868Z,340
2016-12-30T12:01:19.879Z,340
2016-12-30T12:02:19.891Z,340
2016-12-30T12:03:19.933Z,340
2016-12-30T12:04:19.917Z,336
2016-12-30T12:05:19.944Z,340
2016-12-30T12:06:19.946Z,336
2016-12-30T12:07:19.955Z,332
2016-12-30T12:08:19.967Z,332
2016-12-30T12:09:20.050Z,328
2016-12-30T12:10:20.005Z,332
2016-12-30T12:11:20.018Z,328
2016-12-30T12:12:20.027Z,328
2016-12-30T12:13:20.073Z,332
2016-12-30T12:14:20.052Z,328
2016-12-30T12:15:20.178Z,328
2016-12-30T12:16:20.079Z,328
2016-12-30T12:17:20.086Z,324
2016-12-30T12:18:20.136Z,324
2016-12-30T12:19:20.225Z,324
2016-12-30T12:20:20.140Z,324
2016-12-30T12:21:20.146Z,324
2016-12-30T12:22:20.273Z,320
2016-12-30T12:23:20.177Z,320
2016-12-30T12:24:20.184Z,320
2016-12-30T12:25:20.399Z,316
2016-12-30T12:26:20.454Z,312
2016-12-30T12:27:20.231Z,312
2016-12-30T12:28:20.241Z,308
2016-12-30T12:29:20.253Z,308
2016-12-30T12:30:20.265Z,308
2016-12-30T12:31:20.281Z,308
2016-12-30T12:32:20.289Z,304
2016-12-30T12:33:20.309Z,304
2016-12-30T12:34:20.327Z,300
2016-12-30T12:35:20.332Z,300
2016-12-30T12:36:20.341Z,300
2016-12-30T12:37:20.369Z,296
2016-12-30T12:38:20.492Z,292
2016-12-30T12:39:20.561Z,292
2016-12-30T12:40:20.399Z,288
2016-12-30T12:41:20.582Z,288
2016-12-30T12:42:20.427Z,284
2016-12-30T12:43:20.443Z,284
2016-12-30T12:44:20.457Z,284
2016-12-30T12:45:20.472Z,280
2016-12-30T12:46:20.488Z,280
2016-12-30T12:47:20.712Z,276
2016-12-30T12:48:20.512Z,276
2016-12-30T12:49:20.621Z,276
2016-12-30T12:50:20.652Z,272
2016-12-30T12:51:20.554Z,272
2016-12-30T12:52:20.664Z,268
2016-12-30T12:53:20.578Z,268
2016-12-30T12:54:20.588Z,264
2016-12-30T12:55:20.611Z,260
2016-12-30T12:56:20.704Z,260
2016-12-30T12:57:20.858Z,260
2016-12-30T12:58:20.644Z,256
2016-12-30T12:59:20.663Z,256
2016-12-30T13:00:20.688Z,256
2016-12-30T13:01:20.798Z,256
2016-12-30T13:02:20.817Z,252
2016-12-30T13:03:20.729Z,256
2016-12-30T13:04:20.731Z,252
2016-12-30T13:05:20.940Z,252
2016-12-30T13:06:20.751Z,252
2016-12-30T13:07:20.774Z,252
2016-12-30T13:08:20.786Z,252
2016-12-30T13:09:20.889Z,256
2016-12-30T13:10:20.828Z,256
2016-12-30T13:11:20.821Z,260
2016-12-30T13:12:20.946Z,256
2016-12-30T13:13:20.967Z,256
2016-12-30T13:14:20.956Z,256
2016-12-30T13:15:20.879Z,256
2016-12-30T13:16:21.021Z,256
2016-12-30T13:17:20.903Z,252
2016-12-30T13:18:21.034Z,256
2016-12-30T13:19:20.930Z,252
2016-12-30T13:20:21.064Z,248
2016-12-30T13:21:20.968Z,248
2016-12-30T13:22:21.098Z,244
2016-12-30T13:23:21.139Z,248
2016-12-30T13:24:21.151Z,244
2016-12-30T13:25:21.019Z,244
2016-12-30T13:26:21.026Z,240
2016-12-30T13:27:21.157Z,240
2016-12-30T13:28:21.067Z,240
2016-12-30T13:29:21.073Z,240
2016-12-30T13:30:21.080Z,240
2016-12-30T13:31:21.101Z,236
2016-12-30T13:32:21.119Z,236
2016-12-30T13:33:21.128Z,232
2016-12-30T13:34:21.254Z,232
2016-12-30T13:35:21.151Z,232
2016-12-30T13:36:21.171Z,232
2016-12-30T13:37:21.183Z,228
2016-12-30T13:38:21.202Z,232
2016-12-30T13:39:21.214Z,228
2016-12-30T13:40:21.346Z,228
2016-12-30T13:41:21.248Z,228
2016-12-30T13:42:21.260Z,224
2016-12-30T13:43:21.298Z,224
2016-12-30T13:44:21.279Z,224
2016-12-30T13:45:21.301Z,220
2016-12-30T13:46:21.306Z,220
2016-12-30T13:47:21.321Z,216
2016-12-30T13:48:21.331Z,216
2016-12-30T13:49:21.355Z,216
2016-12-30T13:50:21.360Z,212
2016-12-30T13:51:21.376Z,212
2016-12-30T13:52:21.397Z,208
2016-12-30T13:53:21.401Z,212
2016-12-30T13:54:21.418Z,208
2016-12-30T13:55:21.428Z,208
2016-12-30T13:56:21.577Z,204
2016-12-30T13:57:21.574Z,204
2016-12-30T13:58:21.471Z,204
2016-12-30T13:59:21.630Z,200
2016-12-30T14:00:21.704Z,200
2016-12-30T14:01:21.530Z,200
2016-12-30T14:02:21.643Z,196
2016-12-30T14:03:21.613Z,196
2016-12-30T14:04:21.561Z,192
2016-12-30T14:05:21.583Z,192
2016-12-30T14:06:21.589Z,192
2016-12-30T14:07:21.602Z,188
2016-12-30T14:08:21.761Z,188
2016-12-30T14:09:21.624Z,184
2016-12-30T14:10:21.688Z,184
2016-12-30T14:11:21.657Z,180
2016-12-30T14:12:21.668Z,180
2016-12-30T14:13:21.688Z,180
2016-12-30T14:14:21.694Z,176
2016-12-30T14:15:21.713Z,172
2016-12-30T14:16:21.769Z,172